»·PEaware :: DAL213 KMRY-KHAF

DAL213 :: KMRY-KHAF

FLIGHT INFORMATION

Flight Status: Arrived
Operator:
Delta Air Lines
More flights by this operator :: More flights under this callsign
Pilot: Nicolas L. (9332)
Aircraft: BOEING 737-800
(B738)
More flights by this aircraft type
Origin: KMRY Monterey Peninsula
United States
Destination: KHAF Half Moon Bay
United States
More flights between these airports :: More routes between these airports
Route: +MRY4 SANTY V25 OSI TAILS
File this flight plan on PilotEdge
Remarks: Live Streaming on Twitch "DAL213" and YT
Altitude:
(Current/Filed)
12,000ft
Speed:
(Current/Filed)
400kts
Departed: 09-Oct-18 10:31 PM
Arrived: 09-Oct-18 10:52 PM
Distance/Time
Traveled:
64nm/0:20
Distance/Time
To Go:
Arrived

Flight Plot

Page will automatically refresh every two minutes.

Flight plan parsing failed; only flown route is shown


Map Options




Map Legend


Flown Route
Filed Route
Departure Airport
Arrival Airport
Navaid (VOR, NDB)
Fix

Horizontal Profiles

Position Reports

Time Latitude Longitude Heading Altitude Ground
Speed
09-Oct-18 22:14 36.587144 -121.848460 292 266ft 0kts
09-Oct-18 22:15 36.587144 -121.848460 292 266ft 0kts
09-Oct-18 22:16 36.587144 -121.848460 292 266ft 0kts
09-Oct-18 22:17 36.587144 -121.848460 292 266ft 0kts
09-Oct-18 22:18 36.587144 -121.848460 292 266ft 0kts
09-Oct-18 22:19 36.587144 -121.848460 292 266ft 0kts
09-Oct-18 22:20 36.587144 -121.848460 292 266ft 0kts
09-Oct-18 22:21 36.587144 -121.848460 292 266ft 0kts
09-Oct-18 22:22 36.587144 -121.848460 292 266ft 0kts
09-Oct-18 22:23 36.587144 -121.848460 292 266ft 0kts
09-Oct-18 22:24 36.587144 -121.848460 292 266ft 0kts
09-Oct-18 22:25 36.587144 -121.848460 292 266ft 0kts
09-Oct-18 22:26 36.587144 -121.848460 292 266ft 0kts
09-Oct-18 22:27 36.587144 -121.848460 292 266ft 0kts
09-Oct-18 22:28 36.587144 -121.848460 292 266ft 0kts
09-Oct-18 22:29 36.587357 -121.847986 103 266ft 16kts
09-Oct-18 22:30 36.585408 -121.842552 112 266ft 19kts
09-Oct-18 22:31 36.583224 -121.836096 112 266ft 21kts
09-Oct-18 22:32 36.582871 -121.834052 86 266ft 15kts
09-Oct-18 22:33 36.590169 -121.853730 292 386ft 158kts
09-Oct-18 22:34 36.623548 -121.892006 341 2831ft 200kts
09-Oct-18 22:35 36.684493 -121.922453 336 5073ft 264kts
09-Oct-18 22:36 36.765750 -121.963837 337 9210ft 278kts
09-Oct-18 22:37 36.825863 -121.994529 337 11936ft 287kts
09-Oct-18 22:38 36.898762 -122.031839 337 12044ft 278kts
09-Oct-18 22:39 36.970237 -122.068452 337 12029ft 277kts
09-Oct-18 22:40 37.040410 -122.103766 337 11402ft 264kts
09-Oct-18 22:41 37.108572 -122.138051 337 9653ft 262kts
09-Oct-18 22:42 37.176064 -122.172031 336 8008ft 259kts
09-Oct-18 22:43 37.241413 -122.207375 319 6452ft 251kts
09-Oct-18 22:44 37.250304 -122.286815 254 6097ft 237kts
09-Oct-18 22:45 37.229933 -122.363368 254 4886ft 228kts
09-Oct-18 22:46 37.211192 -122.438469 254 4025ft 225kts
09-Oct-18 22:47 37.245102 -122.492249 329 4000ft 228kts
09-Oct-18 22:48 37.298687 -122.489342 39 4003ft 201kts
09-Oct-18 22:49 37.337714 -122.443542 27 3458ft 183kts
09-Oct-18 22:50 37.384868 -122.435250 355 2333ft 154kts
09-Oct-18 22:51 37.424826 -122.438510 352 1377ft 139kts
09-Oct-18 22:52 37.463765 -122.451951 332 1103ft 146kts
09-Oct-18 22:53 37.500371 -122.485614 312 350ft 138kts
09-Oct-18 22:54 37.518027 -122.506548 333 76ft 23kts
09-Oct-18 22:55 37.517745 -122.503654 136 76ft 12kts
09-Oct-18 22:56 37.515192 -122.499188 123 76ft 13kts
09-Oct-18 22:57 37.513989 -122.496070 30 76ft 0kts
09-Oct-18 22:58 37.513989 -122.496070 30 76ft 0kts
09-Oct-18 22:59 37.513989 -122.496070 30 76ft 0kts
09-Oct-18 23:00 37.513989 -122.496070 30 76ft 0kts
09-Oct-18 23:01 37.513989 -122.496070 30 76ft 0kts
09-Oct-18 23:02 37.513989 -122.496070 30 76ft 0kts
09-Oct-18 23:03 37.513989 -122.496070 30 76ft 0kts
09-Oct-18 23:04 37.513989 -122.496070 30 76ft 0kts
09-Oct-18 23:05 37.513989 -122.496070 30 76ft 0kts

Navigation Log

Ident Type
Flight plan parsing failed, navigation log unavailable